sensor_id;sensor_type;location;lat;lon;timestamp;P1;durP1;ratioP1;P2;durP2;ratioP2
36585;SDS011;22591;48.314;11.562;2023-09-19T00:01:20;2.08;;;1.35;;
36585;SDS011;22591;48.314;11.562;2023-09-19T00:03:46;1.73;;;1.50;;
36585;SDS011;22591;48.314;11.562;2023-09-19T00:06:13;1.60;;;1.50;;
36585;SDS011;22591;48.314;11.562;2023-09-19T00:08:42;2.78;;;1.40;;
36585;SDS011;22591;48.314;11.562;2023-09-19T00:11:10;1.33;;;1.25;;
36585;SDS011;22591;48.314;11.562;2023-09-19T00:13:36;1.27;;;1.17;;
36585;SDS011;22591;48.314;11.562;2023-09-19T00:16:08;4.57;;;1.80;;
36585;SDS011;22591;48.314;11.562;2023-09-19T00:18:35;1.60;;;1.50;;
36585;SDS011;22591;48.314;11.562;2023-09-19T00:21:03;2.40;;;1.50;;
36585;SDS011;22591;48.314;11.562;2023-09-19T00:23:32;3.05;;;1.33;;
36585;SDS011;22591;48.314;11.562;2023-09-19T00:25:59;4.65;;;1.52;;
36585;SDS011;22591;48.314;11.562;2023-09-19T00:28:25;1.30;;;1.20;;
36585;SDS011;22591;48.314;11.562;2023-09-19T00:30:51;2.60;;;1.50;;
36585;SDS011;22591;48.314;11.562;2023-09-19T00:33:17;1.60;;;1.50;;
36585;SDS011;22591;48.314;11.562;2023-09-19T00:35:47;2.25;;;1.15;;
36585;SDS011;22591;48.314;11.562;2023-09-19T00:38:13;2.20;;;1.70;;
36585;SDS011;22591;48.314;11.562;2023-09-19T00:40:45;1.65;;;1.42;;
36585;SDS011;22591;48.314;11.562;2023-09-19T00:43:10;1.20;;;1.15;;
36585;SDS011;22591;48.314;11.562;2023-09-19T00:45:36;2.00;;;1.67;;
36585;SDS011;22591;48.314;11.562;2023-09-19T00:48:07;1.08;;;1.08;;
36585;SDS011;22591;48.314;11.562;2023-09-19T00:50:34;1.02;;;1.02;;
36585;SDS011;22591;48.314;11.562;2023-09-19T00:53:00;1.60;;;1.40;;
36585;SDS011;22591;48.314;11.562;2023-09-19T00:55:26;2.03;;;1.77;;
36585;SDS011;22591;48.314;11.562;2023-09-19T00:57:56;1.92;;;1.48;;
36585;SDS011;22591;48.314;11.562;2023-09-19T01:00:23;2.70;;;1.55;;
36585;SDS011;22591;48.314;11.562;2023-09-19T01:02:50;2.15;;;1.77;;
36585;SDS011;22591;48.314;11.562;2023-09-19T01:05:16;2.97;;;1.55;;
36585;SDS011;22591;48.314;11.562;2023-09-19T01:07:44;1.98;;;1.48;;
36585;SDS011;22591;48.314;11.562;2023-09-19T01:10:13;3.65;;;1.70;;
36585;SDS011;22591;48.314;11.562;2023-09-19T01:12:51;1.60;;;1.50;;
36585;SDS011;22591;48.314;11.562;2023-09-19T01:21:14;2.90;;;1.42;;
36585;SDS011;22591;48.314;11.562;2023-09-19T01:24:28;1.50;;;1.40;;
36585;SDS011;22591;48.314;11.562;2023-09-19T01:30:09;1.73;;;1.55;;
36585;SDS011;22591;48.314;11.562;2023-09-19T01:32:36;2.20;;;1.80;;
36585;SDS011;22591;48.314;11.562;2023-09-19T01:35:05;1.42;;;1.33;;
36585;SDS011;22591;48.314;11.562;2023-09-19T01:37:31;1.63;;;1.50;;
36585;SDS011;22591;48.314;11.562;2023-09-19T01:40:04;2.67;;;1.38;;
36585;SDS011;22591;48.314;11.562;2023-09-19T01:42:49;1.60;;;1.50;;
36585;SDS011;22591;48.314;11.562;2023-09-19T01:45:32;4.40;;;1.67;;
36585;SDS011;22591;48.314;11.562;2023-09-19T01:48:10;1.83;;;1.55;;
36585;SDS011;22591;48.314;11.562;2023-09-19T01:51:00;1.52;;;1.42;;
36585;SDS011;22591;48.314;11.562;2023-09-19T01:57:13;3.08;;;1.70;;
36585;SDS011;22591;48.314;11.562;2023-09-19T01:59:33;3.08;;;1.80;;
36585;SDS011;22591;48.314;11.562;2023-09-19T02:02:06;1.85;;;1.60;;
36585;SDS011;22591;48.314;11.562;2023-09-19T02:04:34;2.53;;;1.63;;
36585;SDS011;22591;48.314;11.562;2023-09-19T02:07:00;1.73;;;1.40;;
36585;SDS011;22591;48.314;11.562;2023-09-19T02:09:27;2.90;;;1.40;;
36585;SDS011;22591;48.314;11.562;2023-09-19T02:11:52;2.20;;;2.00;;
36585;SDS011;22591;48.314;11.562;2023-09-19T02:14:21;1.98;;;1.38;;
36585;SDS011;22591;48.314;11.562;2023-09-19T02:16:48;1.55;;;1.45;;
36585;SDS011;22591;48.314;11.562;2023-09-19T02:19:15;1.83;;;1.73;;
36585;SDS011;22591;48.314;11.562;2023-09-19T02:21:42;3.40;;;1.50;;
36585;SDS011;22591;48.314;11.562;2023-09-19T02:24:08;1.85;;;1.67;;
36585;SDS011;22591;48.314;11.562;2023-09-19T02:26:33;1.65;;;1.55;;
36585;SDS011;22591;48.314;11.562;2023-09-19T02:29:02;2.47;;;1.60;;
36585;SDS011;22591;48.314;11.562;2023-09-19T02:31:29;1.73;;;1.40;;
36585;SDS011;22591;48.314;11.562;2023-09-19T02:33:55;3.88;;;1.65;;
36585;SDS011;22591;48.314;11.562;2023-09-19T02:36:21;1.52;;;1.42;;
36585;SDS011;22591;48.314;11.562;2023-09-19T02:38:49;1.73;;;1.63;;
36585;SDS011;22591;48.314;11.562;2023-09-19T02:41:15;2.58;;;1.80;;
36585;SDS011;22591;48.314;11.562;2023-09-19T02:43:41;2.00;;;1.48;;
36585;SDS011;22591;48.314;11.562;2023-09-19T02:46:08;1.88;;;1.67;;
36585;SDS011;22591;48.314;11.562;2023-09-19T02:48:34;1.45;;;1.35;;
36585;SDS011;22591;48.314;11.562;2023-09-19T02:51:01;2.10;;;1.65;;
36585;SDS011;22591;48.314;11.562;2023-09-19T02:53:28;1.20;;;1.20;;
36585;SDS011;22591;48.314;11.562;2023-09-19T02:55:57;2.55;;;1.42;;
36585;SDS011;22591;48.314;11.562;2023-09-19T02:58:23;1.95;;;1.73;;
36585;SDS011;22591;48.314;11.562;2023-09-19T03:00:50;2.80;;;1.42;;
36585;SDS011;22591;48.314;11.562;2023-09-19T03:03:17;2.50;;;1.60;;
36585;SDS011;22591;48.314;11.562;2023-09-19T03:05:43;1.92;;;1.55;;
36585;SDS011;22591;48.314;11.562;2023-09-19T03:08:18;2.17;;;1.50;;
36585;SDS011;22591;48.314;11.562;2023-09-19T03:10:51;3.90;;;1.63;;
36585;SDS011;22591;48.314;11.562;2023-09-19T03:13:18;2.30;;;1.75;;
36585;SDS011;22591;48.314;11.562;2023-09-19T03:15:45;2.15;;;1.80;;
36585;SDS011;22591;48.314;11.562;2023-09-19T03:18:14;2.13;;;1.77;;
36585;SDS011;22591;48.314;11.562;2023-09-19T03:20:40;1.40;;;1.30;;
36585;SDS011;22591;48.314;11.562;2023-09-19T03:23:05;2.20;;;1.80;;
36585;SDS011;22591;48.314;11.562;2023-09-19T03:25:35;1.48;;;1.38;;
36585;SDS011;22591;48.314;11.562;2023-09-19T03:28:02;2.58;;;1.48;;
36585;SDS011;22591;48.314;11.562;2023-09-19T03:30:31;3.05;;;1.65;;
36585;SDS011;22591;48.314;11.562;2023-09-19T03:32:59;1.65;;;1.40;;
36585;SDS011;22591;48.314;11.562;2023-09-19T03:35:25;3.38;;;2.05;;
36585;SDS011;22591;48.314;11.562;2023-09-19T03:37:52;1.50;;;1.40;;
36585;SDS011;22591;48.314;11.562;2023-09-19T03:40:18;2.00;;;1.70;;
36585;SDS011;22591;48.314;11.562;2023-09-19T03:42:46;2.70;;;1.40;;
36585;SDS011;22591;48.314;11.562;2023-09-19T03:45:13;2.90;;;1.77;;
36585;SDS011;22591;48.314;11.562;2023-09-19T03:47:40;2.55;;;1.60;;
36585;SDS011;22591;48.314;11.562;2023-09-19T03:50:08;1.95;;;1.38;;
36585;SDS011;22591;48.314;11.562;2023-09-19T03:52:36;1.63;;;1.50;;
36585;SDS011;22591;48.314;11.562;2023-09-19T03:55:02;2.28;;;2.08;;
36585;SDS011;22591;48.314;11.562;2023-09-19T03:57:30;1.77;;;1.20;;
36585;SDS011;22591;48.314;11.562;2023-09-19T03:59:56;4.47;;;1.77;;
36585;SDS011;22591;48.314;11.562;2023-09-19T04:02:23;3.55;;;1.80;;
36585;SDS011;22591;48.314;11.562;2023-09-19T04:04:51;1.77;;;1.67;;
36585;SDS011;22591;48.314;11.562;2023-09-19T04:07:18;2.03;;;1.83;;
36585;SDS011;22591;48.314;11.562;2023-09-19T04:09:45;2.50;;;1.40;;
36585;SDS011;22591;48.314;11.562;2023-09-19T04:12:11;2.40;;;1.55;;
36585;SDS011;22591;48.314;11.562;2023-09-19T04:14:38;2.50;;;1.92;;
36585;SDS011;22591;48.314;11.562;2023-09-19T04:17:05;1.60;;;1.50;;
36585;SDS011;22591;48.314;11.562;2023-09-19T04:19:33;2.28;;;1.55;;
36585;SDS011;22591;48.314;11.562;2023-09-19T04:22:00;1.77;;;1.65;;
36585;SDS011;22591;48.314;11.562;2023-09-19T04:24:26;1.60;;;1.50;;
36585;SDS011;22591;48.314;11.562;2023-09-19T04:26:51;3.35;;;1.95;;
36585;SDS011;22591;48.314;11.562;2023-09-19T04:29:19;2.85;;;1.70;;
36585;SDS011;22591;48.314;11.562;2023-09-19T04:31:45;1.52;;;1.42;;
36585;SDS011;22591;48.314;11.562;2023-09-19T04:34:11;2.15;;;1.60;;
36585;SDS011;22591;48.314;11.562;2023-09-19T04:36:42;2.63;;;1.92;;
36585;SDS011;22591;48.314;11.562;2023-09-19T04:39:10;2.83;;;1.73;;
36585;SDS011;22591;48.314;11.562;2023-09-19T04:41:39;2.10;;;1.70;;
36585;SDS011;22591;48.314;11.562;2023-09-19T04:44:06;1.67;;;1.58;;
36585;SDS011;22591;48.314;11.562;2023-09-19T04:46:32;2.85;;;1.52;;
36585;SDS011;22591;48.314;11.562;2023-09-19T04:48:58;3.00;;;1.80;;
36585;SDS011;22591;48.314;11.562;2023-09-19T04:51:25;1.50;;;1.40;;
36585;SDS011;22591;48.314;11.562;2023-09-19T04:53:54;1.50;;;1.40;;
36585;SDS011;22591;48.314;11.562;2023-09-19T04:56:20;2.72;;;2.00;;
36585;SDS011;22591;48.314;11.562;2023-09-19T04:58:48;1.63;;;1.52;;
36585;SDS011;22591;48.314;11.562;2023-09-19T05:01:15;1.60;;;1.50;;
36585;SDS011;22591;48.314;11.562;2023-09-19T05:03:42;1.30;;;1.27;;
36585;SDS011;22591;48.314;11.562;2023-09-19T05:06:09;2.58;;;2.05;;
36585;SDS011;22591;48.314;11.562;2023-09-19T05:08:36;1.98;;;1.85;;
36585;SDS011;22591;48.314;11.562;2023-09-19T05:11:02;1.60;;;1.50;;
36585;SDS011;22591;48.314;11.562;2023-09-19T05:13:29;1.70;;;1.58;;
36585;SDS011;22591;48.314;11.562;2023-09-19T05:15:59;1.88;;;1.77;;
36585;SDS011;22591;48.314;11.562;2023-09-19T05:18:28;2.17;;;1.60;;
36585;SDS011;22591;48.314;11.562;2023-09-19T05:20:54;1.83;;;1.33;;
36585;SDS011;22591;48.314;11.562;2023-09-19T05:23:20;1.35;;;1.25;;
36585;SDS011;22591;48.314;11.562;2023-09-19T05:25:48;2.22;;;1.92;;
36585;SDS011;22591;48.314;11.562;2023-09-19T05:28:13;1.67;;;1.38;;
36585;SDS011;22591;48.314;11.562;2023-09-19T05:30:41;2.30;;;1.80;;
36585;SDS011;22591;48.314;11.562;2023-09-19T05:33:09;2.15;;;1.67;;
36585;SDS011;22591;48.314;11.562;2023-09-19T05:35:36;1.70;;;1.60;;
36585;SDS011;22591;48.314;11.562;2023-09-19T05:38:05;3.13;;;1.80;;
36585;SDS011;22591;48.314;11.562;2023-09-19T05:40:35;1.85;;;1.50;;
36585;SDS011;22591;48.314;11.562;2023-09-19T05:43:02;3.13;;;1.50;;
36585;SDS011;22591;48.314;11.562;2023-09-19T05:45:32;1.60;;;1.50;;
36585;SDS011;22591;48.314;11.562;2023-09-19T05:48:05;1.85;;;1.50;;
36585;SDS011;22591;48.314;11.562;2023-09-19T05:50:38;2.65;;;1.85;;
36585;SDS011;22591;48.314;11.562;2023-09-19T05:53:04;1.65;;;1.55;;
36585;SDS011;22591;48.314;11.562;2023-09-19T05:55:32;2.13;;;1.45;;
36585;SDS011;22591;48.314;11.562;2023-09-19T05:57:59;1.55;;;1.30;;
36585;SDS011;22591;48.314;11.562;2023-09-19T06:00:25;1.70;;;1.60;;
36585;SDS011;22591;48.314;11.562;2023-09-19T06:02:54;1.67;;;1.38;;
36585;SDS011;22591;48.314;11.562;2023-09-19T06:05:22;1.27;;;1.27;;
36585;SDS011;22591;48.314;11.562;2023-09-19T06:07:50;1.65;;;1.55;;
36585;SDS011;22591;48.314;11.562;2023-09-19T06:10:18;2.03;;;1.60;;
36585;SDS011;22591;48.314;11.562;2023-09-19T06:12:46;1.83;;;1.52;;
36585;SDS011;22591;48.314;11.562;2023-09-19T06:15:15;1.88;;;1.42;;
36585;SDS011;22591;48.314;11.562;2023-09-19T06:17:50;1.98;;;1.55;;
36585;SDS011;22591;48.314;11.562;2023-09-19T06:20:25;1.42;;;1.33;;
36585;SDS011;22591;48.314;11.562;2023-09-19T06:22:53;1.33;;;1.10;;
36585;SDS011;22591;48.314;11.562;2023-09-19T06:25:20;1.48;;;1.38;;
36585;SDS011;22591;48.314;11.562;2023-09-19T06:27:50;1.73;;;1.60;;
36585;SDS011;22591;48.314;11.562;2023-09-19T06:30:18;2.03;;;1.83;;
36585;SDS011;22591;48.314;11.562;2023-09-19T06:32:46;1.80;;;1.50;;
36585;SDS011;22591;48.314;11.562;2023-09-19T06:35:14;1.30;;;1.20;;
36585;SDS011;22591;48.314;11.562;2023-09-19T06:37:42;1.10;;;1.10;;
36585;SDS011;22591;48.314;11.562;2023-09-19T06:42:45;1.73;;;1.20;;
36585;SDS011;22591;48.314;11.562;2023-09-19T06:45:14;1.52;;;1.42;;
36585;SDS011;22591;48.314;11.562;2023-09-19T06:47:50;3.42;;;1.50;;
36585;SDS011;22591;48.314;11.562;2023-09-19T06:50:17;2.05;;;1.30;;
36585;SDS011;22591;48.314;11.562;2023-09-19T06:52:46;1.33;;;1.23;;
36585;SDS011;22591;48.314;11.562;2023-09-19T06:55:16;3.78;;;1.52;;
36585;SDS011;22591;48.314;11.562;2023-09-19T06:57:46;1.70;;;1.25;;
36585;SDS011;22591;48.314;11.562;2023-09-19T07:00:13;1.30;;;1.20;;
36585;SDS011;22591;48.314;11.562;2023-09-19T07:02:58;1.70;;;1.30;;
36585;SDS011;22591;48.314;11.562;2023-09-19T07:05:27;1.25;;;1.13;;
36585;SDS011;22591;48.314;11.562;2023-09-19T07:07:54;2.35;;;1.25;;
36585;SDS011;22591;48.314;11.562;2023-09-19T07:10:22;2.70;;;1.40;;
36585;SDS011;22591;48.314;11.562;2023-09-19T07:12:54;3.17;;;1.73;;
36585;SDS011;22591;48.314;11.562;2023-09-19T07:15:28;1.13;;;1.10;;
36585;SDS011;22591;48.314;11.562;2023-09-19T07:18:03;3.97;;;1.35;;
36585;SDS011;22591;48.314;11.562;2023-09-19T07:20:30;2.72;;;1.63;;
36585;SDS011;22591;48.314;11.562;2023-09-19T07:22:58;2.70;;;1.10;;
36585;SDS011;22591;48.314;11.562;2023-09-19T07:25:28;1.13;;;1.05;;
36585;SDS011;22591;48.314;11.562;2023-09-19T07:28:00;1.95;;;1.40;;
36585;SDS011;22591;48.314;11.562;2023-09-19T07:32:52;1.08;;;1.00;;
36585;SDS011;22591;48.314;11.562;2023-09-19T07:35:20;1.58;;;1.00;;
36585;SDS011;22591;48.314;11.562;2023-09-19T07:37:51;3.85;;;1.33;;
36585;SDS011;22591;48.314;11.562;2023-09-19T07:40:17;1.40;;;1.30;;
36585;SDS011;22591;48.314;11.562;2023-09-19T07:42:45;1.30;;;1.20;;
36585;SDS011;22591;48.314;11.562;2023-09-19T07:45:13;1.38;;;1.27;;
36585;SDS011;22591;48.314;11.562;2023-09-19T07:47:49;1.92;;;1.35;;
36585;SDS011;22591;48.314;11.562;2023-09-19T07:50:16;1.48;;;1.17;;
36585;SDS011;22591;48.314;11.562;2023-09-19T07:52:48;1.08;;;1.00;;
36585;SDS011;22591;48.314;11.562;2023-09-19T07:55:19;1.92;;;1.13;;
36585;SDS011;22591;48.314;11.562;2023-09-19T07:57:50;1.67;;;1.40;;
36585;SDS011;22591;48.314;11.562;2023-09-19T08:00:17;2.58;;;1.10;;
36585;SDS011;22591;48.314;11.562;2023-09-19T08:02:43;1.10;;;1.10;;
36585;SDS011;22591;48.314;11.562;2023-09-19T08:05:09;3.00;;;1.10;;
36585;SDS011;22591;48.314;11.562;2023-09-19T08:07:43;1.77;;;0.93;;
36585;SDS011;22591;48.314;11.562;2023-09-19T08:10:13;1.55;;;1.30;;
36585;SDS011;22591;48.314;11.562;2023-09-19T08:12:42;1.13;;;1.00;;
36585;SDS011;22591;48.314;11.562;2023-09-19T08:15:13;2.60;;;1.23;;
36585;SDS011;22591;48.314;11.562;2023-09-19T08:17:48;1.80;;;0.95;;
36585;SDS011;22591;48.314;11.562;2023-09-19T08:20:14;1.20;;;1.10;;
36585;SDS011;22591;48.314;11.562;2023-09-19T08:22:51;1.10;;;1.00;;
36585;SDS011;22591;48.314;11.562;2023-09-19T08:25:21;1.48;;;1.30;;
36585;SDS011;22591;48.314;11.562;2023-09-19T08:27:48;1.35;;;1.25;;
36585;SDS011;22591;48.314;11.562;2023-09-19T08:30:15;2.22;;;1.25;;
36585;SDS011;22591;48.314;11.562;2023-09-19T08:32:42;0.90;;;0.90;;
36585;SDS011;22591;48.314;11.562;2023-09-19T08:35:08;1.85;;;0.95;;
36585;SDS011;22591;48.314;11.562;2023-09-19T08:37:38;1.27;;;1.17;;
36585;SDS011;22591;48.314;11.562;2023-09-19T08:40:05;3.20;;;1.13;;
36585;SDS011;22591;48.314;11.562;2023-09-19T08:45:25;1.67;;;0.80;;
36585;SDS011;22591;48.314;11.562;2023-09-19T08:48:10;3.47;;;1.40;;
36585;SDS011;22591;48.314;11.562;2023-09-19T08:56:19;3.10;;;1.20;;
36585;SDS011;22591;48.314;11.562;2023-09-19T08:58:53;1.38;;;1.27;;
36585;SDS011;22591;48.314;11.562;2023-09-19T09:01:27;1.20;;;1.10;;
36585;SDS011;22591;48.314;11.562;2023-09-19T09:03:53;0.95;;;0.95;;
36585;SDS011;22591;48.314;11.562;2023-09-19T09:06:20;2.63;;;0.85;;
36585;SDS011;22591;48.314;11.562;2023-09-19T09:08:46;1.10;;;1.08;;
36585;SDS011;22591;48.314;11.562;2023-09-19T09:11:14;2.40;;;1.10;;
36585;SDS011;22591;48.314;11.562;2023-09-19T09:13:42;0.90;;;0.90;;
36585;SDS011;22591;48.314;11.562;2023-09-19T09:16:12;1.42;;;1.33;;
36585;SDS011;22591;48.314;11.562;2023-09-19T09:18:40;1.02;;;0.90;;
36585;SDS011;22591;48.314;11.562;2023-09-19T09:21:06;3.40;;;1.13;;
36585;SDS011;22591;48.314;11.562;2023-09-19T09:23:33;1.20;;;1.10;;
36585;SDS011;22591;48.314;11.562;2023-09-19T09:26:00;0.98;;;0.88;;
36585;SDS011;22591;48.314;11.562;2023-09-19T09:28:31;1.10;;;1.00;;
36585;SDS011;22591;48.314;11.562;2023-09-19T09:31:00;1.30;;;1.20;;
36585;SDS011;22591;48.314;11.562;2023-09-19T09:33:29;1.08;;;1.08;;
36585;SDS011;22591;48.314;11.562;2023-09-19T09:35:57;1.48;;;1.10;;
36585;SDS011;22591;48.314;11.562;2023-09-19T09:38:28;1.20;;;0.98;;
36585;SDS011;22591;48.314;11.562;2023-09-19T09:41:08;1.40;;;1.30;;
36585;SDS011;22591;48.314;11.562;2023-09-19T09:43:42;1.10;;;1.05;;
36585;SDS011;22591;48.314;11.562;2023-09-19T09:46:17;2.90;;;0.88;;
36585;SDS011;22591;48.314;11.562;2023-09-19T09:48:48;2.60;;;1.42;;
36585;SDS011;22591;48.314;11.562;2023-09-19T09:51:45;1.52;;;1.40;;
36585;SDS011;22591;48.314;11.562;2023-09-19T09:54:24;0.90;;;0.90;;
36585;SDS011;22591;48.314;11.562;2023-09-19T09:57:06;1.08;;;1.00;;
36585;SDS011;22591;48.314;11.562;2023-09-19T10:02:34;1.40;;;1.30;;
36585;SDS011;22591;48.314;11.562;2023-09-19T10:05:19;3.22;;;1.10;;
36585;SDS011;22591;48.314;11.562;2023-09-19T10:07:46;2.15;;;1.10;;
36585;SDS011;22591;48.314;11.562;2023-09-19T10:10:33;1.20;;;1.05;;
36585;SDS011;22591;48.314;11.562;2023-09-19T10:13:20;1.08;;;1.00;;
36585;SDS011;22591;48.314;11.562;2023-09-19T10:15:51;1.95;;;1.17;;
36585;SDS011;22591;48.314;11.562;2023-09-19T10:18:21;1.08;;;0.98;;
36585;SDS011;22591;48.314;11.562;2023-09-19T10:20:48;3.10;;;1.00;;
36585;SDS011;22591;48.314;11.562;2023-09-19T10:23:18;0.75;;;0.75;;
36585;SDS011;22591;48.314;11.562;2023-09-19T10:25:50;0.98;;;0.88;;
36585;SDS011;22591;48.314;11.562;2023-09-19T10:28:17;1.00;;;0.90;;
36585;SDS011;22591;48.314;11.562;2023-09-19T10:30:49;1.00;;;0.90;;
36585;SDS011;22591;48.314;11.562;2023-09-19T10:33:18;2.05;;;1.00;;
36585;SDS011;22591;48.314;11.562;2023-09-19T10:35:48;1.25;;;0.77;;
36585;SDS011;22591;48.314;11.562;2023-09-19T10:38:22;5.00;;;1.20;;
36585;SDS011;22591;48.314;11.562;2023-09-19T10:40:53;3.10;;;1.20;;
36585;SDS011;22591;48.314;11.562;2023-09-19T10:43:21;1.55;;;0.90;;
36585;SDS011;22591;48.314;11.562;2023-09-19T10:45:52;1.13;;;0.90;;
36585;SDS011;22591;48.314;11.562;2023-09-19T10:48:22;1.20;;;1.10;;
36585;SDS011;22591;48.314;11.562;2023-09-19T10:53:56;2.90;;;0.80;;
36585;SDS011;22591;48.314;11.562;2023-09-19T10:56:31;2.45;;;0.77;;
36585;SDS011;22591;48.314;11.562;2023-09-19T10:59:08;2.03;;;1.05;;
36585;SDS011;22591;48.314;11.562;2023-09-19T11:07:02;0.80;;;0.80;;
36585;SDS011;22591;48.314;11.562;2023-09-19T11:09:55;2.17;;;0.90;;
36585;SDS011;22591;48.314;11.562;2023-09-19T11:15:00;1.20;;;1.10;;
36585;SDS011;22591;48.314;11.562;2023-09-19T11:17:31;1.92;;;0.77;;
36585;SDS011;22591;48.314;11.562;2023-09-19T11:30:43;1.52;;;0.90;;
36585;SDS011;22591;48.314;11.562;2023-09-19T11:33:20;1.10;;;1.00;;
36585;SDS011;22591;48.314;11.562;2023-09-19T11:46:29;1.77;;;1.00;;
36585;SDS011;22591;48.314;11.562;2023-09-19T11:48:58;1.00;;;1.00;;
36585;SDS011;22591;48.314;11.562;2023-09-19T11:51:39;0.73;;;0.73;;
36585;SDS011;22591;48.314;11.562;2023-09-19T11:54:10;3.15;;;0.95;;
36585;SDS011;22591;48.314;11.562;2023-09-19T11:56:42;0.90;;;0.90;;
36585;SDS011;22591;48.314;11.562;2023-09-19T11:59:09;1.42;;;1.10;;
36585;SDS011;22591;48.314;11.562;2023-09-19T12:01:37;1.67;;;1.00;;
36585;SDS011;22591;48.314;11.562;2023-09-19T12:04:10;1.00;;;0.90;;
36585;SDS011;22591;48.314;11.562;2023-09-19T12:06:37;1.30;;;1.20;;
36585;SDS011;22591;48.314;11.562;2023-09-19T12:09:12;0.90;;;0.90;;
36585;SDS011;22591;48.314;11.562;2023-09-19T12:11:43;2.63;;;1.00;;
36585;SDS011;22591;48.314;11.562;2023-09-19T12:14:09;0.73;;;0.73;;
36585;SDS011;22591;48.314;11.562;2023-09-19T12:16:36;2.75;;;1.20;;
36585;SDS011;22591;48.314;11.562;2023-09-19T12:19:21;0.88;;;0.88;;
36585;SDS011;22591;48.314;11.562;2023-09-19T12:22:02;1.10;;;0.98;;
36585;SDS011;22591;48.314;11.562;2023-09-19T12:24:32;1.58;;;0.73;;
36585;SDS011;22591;48.314;11.562;2023-09-19T12:27:01;1.25;;;0.90;;
36585;SDS011;22591;48.314;11.562;2023-09-19T12:29:32;0.88;;;0.88;;
36585;SDS011;22591;48.314;11.562;2023-09-19T12:32:10;1.40;;;1.10;;
36585;SDS011;22591;48.314;11.562;2023-09-19T12:34:35;0.88;;;0.88;;
36585;SDS011;22591;48.314;11.562;2023-09-19T12:37:19;2.38;;;0.90;;
36585;SDS011;22591;48.314;11.562;2023-09-19T12:40:06;1.15;;;0.80;;
36585;SDS011;22591;48.314;11.562;2023-09-19T12:42:48;1.08;;;0.98;;
36585;SDS011;22591;48.314;11.562;2023-09-19T12:45:15;1.58;;;1.15;;
36585;SDS011;22591;48.314;11.562;2023-09-19T12:51:05;2.70;;;1.08;;
36585;SDS011;22591;48.314;11.562;2023-09-19T12:53:33;1.17;;;1.08;;
36585;SDS011;22591;48.314;11.562;2023-09-19T12:56:05;0.90;;;0.90;;
36585;SDS011;22591;48.314;11.562;2023-09-19T12:58:36;1.52;;;1.20;;
36585;SDS011;22591;48.314;11.562;2023-09-19T13:01:23;0.80;;;0.80;;
36585;SDS011;22591;48.314;11.562;2023-09-19T13:06:50;1.30;;;1.20;;
36585;SDS011;22591;48.314;11.562;2023-09-19T13:09:19;0.90;;;0.90;;
36585;SDS011;22591;48.314;11.562;2023-09-19T13:11:47;2.90;;;1.10;;
36585;SDS011;22591;48.314;11.562;2023-09-19T13:17:02;0.90;;;0.90;;
36585;SDS011;22591;48.314;11.562;2023-09-19T13:19:38;1.30;;;1.00;;
36585;SDS011;22591;48.314;11.562;2023-09-19T13:25:09;1.92;;;1.08;;
36585;SDS011;22591;48.314;11.562;2023-09-19T13:27:49;0.88;;;0.88;;
36585;SDS011;22591;48.314;11.562;2023-09-19T13:30:22;1.83;;;0.93;;
36585;SDS011;22591;48.314;11.562;2023-09-19T13:32:51;0.82;;;0.82;;
36585;SDS011;22591;48.314;11.562;2023-09-19T13:35:19;2.67;;;0.90;;
36585;SDS011;22591;48.314;11.562;2023-09-19T13:37:46;3.17;;;1.10;;
36585;SDS011;22591;48.314;11.562;2023-09-19T13:40:15;1.27;;;1.17;;
36585;SDS011;22591;48.314;11.562;2023-09-19T13:42:42;0.80;;;0.80;;
36585;SDS011;22591;48.314;11.562;2023-09-19T13:45:08;1.88;;;1.45;;
36585;SDS011;22591;48.314;11.562;2023-09-19T13:47:38;1.10;;;1.00;;
36585;SDS011;22591;48.314;11.562;2023-09-19T13:50:04;0.82;;;0.73;;
36585;SDS011;22591;48.314;11.562;2023-09-19T13:52:31;1.02;;;1.00;;
36585;SDS011;22591;48.314;11.562;2023-09-19T13:54:58;2.40;;;0.98;;
36585;SDS011;22591;48.314;11.562;2023-09-19T13:57:25;1.58;;;1.02;;
36585;SDS011;22591;48.314;11.562;2023-09-19T13:59:53;2.13;;;1.20;;
36585;SDS011;22591;48.314;11.562;2023-09-19T14:02:21;1.00;;;1.00;;
36585;SDS011;22591;48.314;11.562;2023-09-19T14:04:54;1.83;;;1.15;;
36585;SDS011;22591;48.314;11.562;2023-09-19T14:07:21;1.05;;;0.90;;
36585;SDS011;22591;48.314;11.562;2023-09-19T14:09:47;0.90;;;0.90;;
36585;SDS011;22591;48.314;11.562;2023-09-19T14:12:14;1.73;;;1.35;;
36585;SDS011;22591;48.314;11.562;2023-09-19T14:14:40;1.88;;;1.33;;
36585;SDS011;22591;48.314;11.562;2023-09-19T14:17:05;3.38;;;1.27;;
36585;SDS011;22591;48.314;11.562;2023-09-19T14:19:33;0.90;;;0.88;;
36585;SDS011;22591;48.314;11.562;2023-09-19T14:22:01;1.67;;;1.33;;
36585;SDS011;22591;48.314;11.562;2023-09-19T14:24:32;0.82;;;0.82;;
36585;SDS011;22591;48.314;11.562;2023-09-19T14:26:59;1.80;;;1.17;;
36585;SDS011;22591;48.314;11.562;2023-09-19T14:29:26;3.47;;;1.15;;
36585;SDS011;22591;48.314;11.562;2023-09-19T14:31:51;1.45;;;1.25;;
36585;SDS011;22591;48.314;11.562;2023-09-19T14:34:18;2.08;;;1.15;;
36585;SDS011;22591;48.314;11.562;2023-09-19T14:36:44;2.47;;;1.00;;
36585;SDS011;22591;48.314;11.562;2023-09-19T14:39:10;1.63;;;1.23;;
36585;SDS011;22591;48.314;11.562;2023-09-19T14:41:35;0.90;;;0.90;;
36585;SDS011;22591;48.314;11.562;2023-09-19T14:44:02;1.30;;;1.20;;
36585;SDS011;22591;48.314;11.562;2023-09-19T14:46:28;1.10;;;1.00;;
36585;SDS011;22591;48.314;11.562;2023-09-19T14:48:53;0.80;;;0.80;;
36585;SDS011;22591;48.314;11.562;2023-09-19T14:51:23;3.20;;;0.90;;
36585;SDS011;22591;48.314;11.562;2023-09-19T14:53:48;2.55;;;1.10;;
36585;SDS011;22591;48.314;11.562;2023-09-19T14:56:16;3.63;;;1.10;;
36585;SDS011;22591;48.314;11.562;2023-09-19T14:58:43;1.30;;;1.05;;
36585;SDS011;22591;48.314;11.562;2023-09-19T15:01:12;1.85;;;1.13;;
36585;SDS011;22591;48.314;11.562;2023-09-19T15:03:40;1.95;;;0.95;;
36585;SDS011;22591;48.314;11.562;2023-09-19T15:06:07;1.63;;;1.17;;
36585;SDS011;22591;48.314;11.562;2023-09-19T15:08:36;3.08;;;1.20;;
36585;SDS011;22591;48.314;11.562;2023-09-19T15:11:05;4.28;;;1.10;;
36585;SDS011;22591;48.314;11.562;2023-09-19T15:13:36;1.33;;;1.00;;
36585;SDS011;22591;48.314;11.562;2023-09-19T15:16:03;3.65;;;1.15;;
36585;SDS011;22591;48.314;11.562;2023-09-19T15:18:39;1.10;;;1.00;;
36585;SDS011;22591;48.314;11.562;2023-09-19T15:21:10;2.80;;;1.25;;
36585;SDS011;22591;48.314;11.562;2023-09-19T15:23:37;1.52;;;1.25;;
36585;SDS011;22591;48.314;11.562;2023-09-19T15:26:05;1.20;;;1.10;;
36585;SDS011;22591;48.314;11.562;2023-09-19T15:31:06;1.38;;;1.08;;
36585;SDS011;22591;48.314;11.562;2023-09-19T15:33:34;2.03;;;1.17;;
36585;SDS011;22591;48.314;11.562;2023-09-19T15:36:10;2.47;;;1.33;;
36585;SDS011;22591;48.314;11.562;2023-09-19T15:41:44;1.40;;;1.30;;
36585;SDS011;22591;48.314;11.562;2023-09-19T15:44:13;1.10;;;1.00;;
36585;SDS011;22591;48.314;11.562;2023-09-19T15:46:42;1.40;;;1.30;;
36585;SDS011;22591;48.314;11.562;2023-09-19T15:49:07;2.10;;;1.00;;
36585;SDS011;22591;48.314;11.562;2023-09-19T15:51:34;2.63;;;0.95;;
36585;SDS011;22591;48.314;11.562;2023-09-19T15:54:12;1.42;;;0.93;;
36585;SDS011;22591;48.314;11.562;2023-09-19T15:56:44;0.80;;;0.80;;
36585;SDS011;22591;48.314;11.562;2023-09-19T15:59:10;2.50;;;1.00;;
36585;SDS011;22591;48.314;11.562;2023-09-19T16:01:41;1.83;;;1.10;;
36585;SDS011;22591;48.314;11.562;2023-09-19T16:04:08;2.45;;;1.02;;
36585;SDS011;22591;48.314;11.562;2023-09-19T16:06:35;3.90;;;1.42;;